createdAt,value
2022-10-26T00:02:17.525Z,10.15
2022-10-26T00:05:00.529Z,10.16
2022-10-26T00:07:30.543Z,10.17
2022-10-26T00:09:59.486Z,10.17
2022-10-26T00:12:28.820Z,10.17
2022-10-26T00:14:57.712Z,10.17
2022-10-26T00:17:26.271Z,10.19
2022-10-26T00:19:55.710Z,10.21
2022-10-26T00:22:24.620Z,10.22
2022-10-26T00:24:53.692Z,10.25
2022-10-26T00:27:36.499Z,10.27
2022-10-26T00:30:19.239Z,10.26
2022-10-26T00:32:48.091Z,10.25
2022-10-26T00:35:23.042Z,10.24
2022-10-26T00:37:58.404Z,10.22
2022-10-26T00:40:41.520Z,10.23
2022-10-26T00:43:24.121Z,10.25
2022-10-26T00:45:55.323Z,10.25
2022-10-26T00:48:28.054Z,10.27
2022-10-26T00:51:01.193Z,10.30
2022-10-26T00:53:45.185Z,10.31
2022-10-26T00:56:14.694Z,10.32
2022-10-26T00:58:44.885Z,10.34
2022-10-26T01:01:14.254Z,10.36
2022-10-26T01:03:44.847Z,10.36
2022-10-26T01:06:15.329Z,10.34
2022-10-26T01:08:45.133Z,10.32
2022-10-26T01:11:27.573Z,10.31
2022-10-26T01:14:11.370Z,10.28
2022-10-26T01:17:12.700Z,10.26
2022-10-26T01:19:41.625Z,10.23
2022-10-26T01:22:34.272Z,10.20
2022-10-26T01:25:33.922Z,10.19
2022-10-26T01:28:34.205Z,10.17
2022-10-26T01:31:05.581Z,10.13
2022-10-26T01:34:05.152Z,10.11
2022-10-26T01:36:59.342Z,10.10
2022-10-26T01:40:10.194Z,10.06
2022-10-26T01:42:55.896Z,10.03
2022-10-26T01:45:42.879Z,10.05
2022-10-26T01:48:27.845Z,10.08
2022-10-26T01:50:58.558Z,10.07
2022-10-26T01:53:33.022Z,10.04
2022-10-26T01:56:02.861Z,10.04
2022-10-26T01:58:57.334Z,10.05
2022-10-26T02:01:45.403Z,10.08
2022-10-26T02:04:26.459Z,10.06
2022-10-26T02:07:25.767Z,10.05
2022-10-26T02:10:39.176Z,10.04
2022-10-26T02:13:15.756Z,10.02
2022-10-26T02:16:28.404Z,9.98
2022-10-26T02:19:39.290Z,9.93
2022-10-26T02:22:19.233Z,9.90
2022-10-26T02:25:08.105Z,9.89
2022-10-26T02:27:42.521Z,9.85
2022-10-26T02:30:13.403Z,9.86
2022-10-26T02:32:48.680Z,9.89
2022-10-26T02:35:35.085Z,9.93
2022-10-26T02:38:09.187Z,9.97
2022-10-26T02:40:52.494Z,9.99
2022-10-26T02:43:23.827Z,10.00
2022-10-26T02:46:04.508Z,9.96
2022-10-26T02:48:48.454Z,9.90
2022-10-26T02:51:25.773Z,9.88
2022-10-26T02:54:26.090Z,9.88
2022-10-26T02:57:15.070Z,9.85
2022-10-26T02:59:48.000Z,9.83
2022-10-26T03:02:19.780Z,9.84
2022-10-26T03:04:50.660Z,9.84
2022-10-26T03:07:33.366Z,9.84
2022-10-26T03:10:16.383Z,9.83
2022-10-26T03:12:45.300Z,9.82
2022-10-26T03:15:14.352Z,9.80
2022-10-26T03:17:57.047Z,9.75
2022-10-26T03:20:25.809Z,9.71
2022-10-26T03:22:54.707Z,9.65
2022-10-26T03:25:25.395Z,9.60
2022-10-26T03:28:07.877Z,9.54
2022-10-26T03:30:37.106Z,9.49
2022-10-26T03:33:19.770Z,9.47
2022-10-26T03:36:00.378Z,9.45
2022-10-26T03:38:29.290Z,9.42
2022-10-26T03:41:11.874Z,9.37
2022-10-26T03:43:40.781Z,9.36
2022-10-26T03:46:23.496Z,9.37
2022-10-26T03:48:52.265Z,9.36
2022-10-26T03:51:21.201Z,9.32
2022-10-26T03:54:04.466Z,9.32
2022-10-26T03:56:51.252Z,9.29
2022-10-26T03:59:23.155Z,9.23
2022-10-26T04:01:55.384Z,9.21
2022-10-26T04:04:40.176Z,9.17
2022-10-26T04:07:08.955Z,9.14
2022-10-26T04:09:37.779Z,9.11
2022-10-26T04:12:20.083Z,9.06
2022-10-26T04:17:32.835Z,9.10
2022-10-26T04:20:16.139Z,9.11
2022-10-26T04:22:45.123Z,9.12
2022-10-26T04:25:14.485Z,9.15
2022-10-26T04:27:43.222Z,9.18
2022-10-26T04:30:26.296Z,9.20
2022-10-26T04:33:09.228Z,9.21
2022-10-26T04:35:38.368Z,9.21
2022-10-26T04:38:20.689Z,9.24
2022-10-26T04:40:51.334Z,9.26
2022-10-26T04:43:20.314Z,9.28
2022-10-26T04:45:49.085Z,9.32
2022-10-26T04:48:17.915Z,9.34
2022-10-26T04:50:47.646Z,9.36
2022-10-26T04:53:16.485Z,9.36
2022-10-26T04:55:45.403Z,9.37
2022-10-26T04:58:31.660Z,9.36
2022-10-26T05:01:15.168Z,9.35
2022-10-26T05:03:58.121Z,9.34
2022-10-26T05:06:40.843Z,9.32
2022-10-26T05:09:09.645Z,9.32
2022-10-26T05:11:38.820Z,9.32
2022-10-26T05:14:21.425Z,9.33
2022-10-26T05:16:51.583Z,9.33
2022-10-26T05:19:21.268Z,9.34
2022-10-26T05:22:04.085Z,9.35
2022-10-26T05:24:46.705Z,9.35
2022-10-26T05:27:29.239Z,9.32
2022-10-26T05:29:58.366Z,9.29
2022-10-26T05:32:26.839Z,9.23
2022-10-26T05:34:55.784Z,9.22
2022-10-26T05:37:24.490Z,9.20
2022-10-26T05:39:53.387Z,9.18
2022-10-26T05:42:22.122Z,9.17
2022-10-26T05:44:50.987Z,9.17
2022-10-26T05:47:20.234Z,9.20
2022-10-26T05:49:49.179Z,9.18
2022-10-26T05:52:18.003Z,9.15
2022-10-26T05:55:00.281Z,9.11
2022-10-26T05:57:29.467Z,9.05
2022-10-26T06:00:19.450Z,9.00
2022-10-26T06:06:14.292Z,8.96
2022-10-26T06:08:56.899Z,8.92
2022-10-26T06:11:25.978Z,8.89
2022-10-26T06:14:09.218Z,8.89
2022-10-26T06:17:22.734Z,8.88
2022-10-26T06:20:10.134Z,8.88
2022-10-26T06:23:17.216Z,8.90
2022-10-26T06:26:23.697Z,8.94
2022-10-26T06:29:11.027Z,8.99
2022-10-26T06:31:53.642Z,9.02
2022-10-26T06:34:40.026Z,9.04
2022-10-26T06:37:23.871Z,9.09
2022-10-26T06:39:54.855Z,9.13
2022-10-26T06:42:24.779Z,9.18
2022-10-26T06:45:11.992Z,9.24
2022-10-26T06:48:20.301Z,9.28
2022-10-26T06:51:02.773Z,9.32
2022-10-26T06:56:20.887Z,9.35
2022-10-26T06:58:53.008Z,9.38
2022-10-26T07:01:21.983Z,9.41
2022-10-26T07:03:51.412Z,9.42
2022-10-26T07:06:36.831Z,9.42
2022-10-26T07:09:21.553Z,9.46
2022-10-26T07:12:04.463Z,9.48
2022-10-26T07:14:33.867Z,9.49
2022-10-26T07:17:02.992Z,9.53
2022-10-26T07:19:32.348Z,9.56
2022-10-26T07:22:15.078Z,9.55
2022-10-26T07:24:44.183Z,9.59
2022-10-26T07:27:26.781Z,9.65
2022-10-26T07:29:55.798Z,9.67
2022-10-26T07:32:38.512Z,9.69
2022-10-26T07:35:07.825Z,9.69
2022-10-26T07:37:50.408Z,9.72
2022-10-26T07:40:33.436Z,9.74
2022-10-26T07:43:02.349Z,9.72
2022-10-26T07:45:32.033Z,9.75
2022-10-26T07:48:01.215Z,9.78
2022-10-26T07:50:43.873Z,9.82
2022-10-26T07:53:13.165Z,9.84
2022-10-26T07:55:42.257Z,9.90
2022-10-26T07:58:11.145Z,9.95
2022-10-26T08:00:40.409Z,9.99
2022-10-26T08:03:23.659Z,10.02
2022-10-26T08:05:56.169Z,10.01
2022-10-26T08:08:39.963Z,10.01
2022-10-26T08:11:11.311Z,10.02
2022-10-26T08:13:42.368Z,10.03
2022-10-26T08:16:12.608Z,10.04
2022-10-26T08:18:42.010Z,10.02
2022-10-26T08:21:36.159Z,9.97
2022-10-26T08:24:09.600Z,9.95
2022-10-26T08:26:52.309Z,9.98
2022-10-26T08:29:21.392Z,9.98
2022-10-26T08:31:50.209Z,9.93
2022-10-26T08:34:32.463Z,9.91
2022-10-26T08:37:15.297Z,9.94
2022-10-26T08:40:00.695Z,9.98
2022-10-26T08:42:31.867Z,10.01
2022-10-26T08:45:13.291Z,10.04
2022-10-26T08:47:48.384Z,10.08
2022-10-26T08:50:42.948Z,10.14
2022-10-26T08:53:24.357Z,10.24
2022-10-26T08:56:18.363Z,10.33
2022-10-26T08:59:25.874Z,10.39
2022-10-26T09:01:54.968Z,10.37
2022-10-26T09:04:28.529Z,10.36
2022-10-26T09:07:08.887Z,10.38
2022-10-26T09:10:41.250Z,10.37
2022-10-26T09:13:13.060Z,10.39
2022-10-26T09:15:59.947Z,10.43
2022-10-26T09:19:02.934Z,10.52
2022-10-26T09:21:39.880Z,10.59
2022-10-26T09:24:14.524Z,10.55
2022-10-26T09:26:53.831Z,10.47
2022-10-26T09:29:28.345Z,10.46
2022-10-26T09:32:00.592Z,10.51
2022-10-26T09:34:36.086Z,10.54
2022-10-26T09:37:18.382Z,10.57
2022-10-26T09:40:04.748Z,10.60
2022-10-26T09:42:59.691Z,10.65
2022-10-26T09:45:36.786Z,10.62
2022-10-26T09:48:15.987Z,10.56
2022-10-26T09:50:49.873Z,10.51
2022-10-26T09:53:19.064Z,10.47
2022-10-26T09:55:50.351Z,10.44
2022-10-26T09:58:37.974Z,10.47
2022-10-26T10:01:07.016Z,10.48
2022-10-26T10:03:36.285Z,10.55
2022-10-26T10:06:21.052Z,10.64
2022-10-26T10:09:23.330Z,10.69
2022-10-26T10:12:06.659Z,10.70
2022-10-26T10:14:56.864Z,10.77
2022-10-26T10:17:26.939Z,10.84
2022-10-26T10:20:13.642Z,10.88
2022-10-26T10:22:54.923Z,10.88
2022-10-26T10:25:34.575Z,10.91
2022-10-26T10:28:21.831Z,10.91
2022-10-26T10:30:59.981Z,10.91
2022-10-26T10:33:42.998Z,10.92
2022-10-26T10:36:20.268Z,10.92
2022-10-26T10:39:02.945Z,10.91
2022-10-26T10:41:37.397Z,10.88
2022-10-26T10:44:31.792Z,10.88
2022-10-26T10:47:06.979Z,10.88
2022-10-26T10:49:36.025Z,10.91
2022-10-26T10:52:05.329Z,10.89
2022-10-26T10:54:38.389Z,10.88
2022-10-26T10:57:33.296Z,10.88
2022-10-26T11:00:20.063Z,10.86
2022-10-26T11:03:02.405Z,10.85
2022-10-26T11:05:31.586Z,10.84
2022-10-26T11:08:09.896Z,10.81
2022-10-26T11:11:02.762Z,10.78
2022-10-26T11:14:09.866Z,10.77
2022-10-26T11:16:44.182Z,10.78
2022-10-26T11:19:13.045Z,10.77
2022-10-26T11:21:56.430Z,10.79
2022-10-26T11:24:41.552Z,10.80
2022-10-26T11:27:39.888Z,10.83
2022-10-26T11:30:25.789Z,10.85
2022-10-26T11:33:33.046Z,10.86
2022-10-26T11:36:22.058Z,10.83
2022-10-26T11:39:06.187Z,10.81
2022-10-26T11:41:52.349Z,10.80
2022-10-26T11:48:14.905Z,10.79
2022-10-26T11:50:48.922Z,10.78
2022-10-26T11:53:20.817Z,10.77
2022-10-26T11:56:05.708Z,10.80
2022-10-26T11:58:34.315Z,10.83
2022-10-26T12:01:12.334Z,10.81
2022-10-26T12:03:57.920Z,10.82
2022-10-26T12:06:40.648Z,10.89
2022-10-26T12:09:17.726Z,10.96
2022-10-26T12:12:10.058Z,10.99
2022-10-26T12:15:04.355Z,11.00
2022-10-26T12:17:55.757Z,11.01
2022-10-26T12:20:49.579Z,11.01
2022-10-26T12:23:58.146Z,10.98
2022-10-26T12:26:40.659Z,10.98
2022-10-26T12:29:09.259Z,11.02
2022-10-26T12:31:51.771Z,11.03
2022-10-26T12:34:40.069Z,11.01
2022-10-26T12:37:08.764Z,11.01
2022-10-26T12:39:40.860Z,11.01
2022-10-26T12:42:09.785Z,11.02
2022-10-26T12:45:08.214Z,11.01
2022-10-26T12:47:37.254Z,10.93
2022-10-26T12:50:09.443Z,10.92
2022-10-26T12:52:54.790Z,10.93
2022-10-26T12:55:50.805Z,10.93
2022-10-26T12:58:50.913Z,10.95
2022-10-26T13:01:38.808Z,10.98
2022-10-26T13:04:15.354Z,11.02
2022-10-26T13:10:13.227Z,11.11
2022-10-26T13:12:57.678Z,11.13
2022-10-26T13:15:38.005Z,11.18
2022-10-26T13:18:06.749Z,11.20
2022-10-26T13:20:37.990Z,11.19
2022-10-26T13:23:27.780Z,11.22
2022-10-26T13:26:21.619Z,11.26
2022-10-26T13:28:53.675Z,11.27
2022-10-26T13:31:37.700Z,11.27
2022-10-26T13:34:21.725Z,11.29
2022-10-26T13:37:08.344Z,11.31
2022-10-26T13:39:55.932Z,11.33
2022-10-26T13:42:52.995Z,11.35
2022-10-26T13:45:54.024Z,11.38
2022-10-26T13:48:42.417Z,11.42
2022-10-26T13:51:23.059Z,11.42
2022-10-26T13:54:22.564Z,11.43
2022-10-26T13:57:14.636Z,11.43
2022-10-26T14:00:03.033Z,11.43
2022-10-26T14:02:43.915Z,11.43
2022-10-26T14:05:16.001Z,11.43
2022-10-26T14:07:59.428Z,11.41
2022-10-26T14:10:29.820Z,11.39
2022-10-26T14:13:00.108Z,11.39
2022-10-26T14:15:47.054Z,11.40
2022-10-26T14:18:31.887Z,11.39
2022-10-26T14:21:18.444Z,11.41
2022-10-26T14:24:07.812Z,11.43
2022-10-26T14:26:41.550Z,11.44
2022-10-26T14:29:25.940Z,11.42
2022-10-26T14:32:30.425Z,11.41
2022-10-26T14:34:59.960Z,11.39
2022-10-26T14:37:58.342Z,11.38
2022-10-26T14:40:41.228Z,11.36
2022-10-26T14:43:26.447Z,11.32
2022-10-26T14:46:16.408Z,11.28
2022-10-26T14:48:57.617Z,11.26
2022-10-26T14:51:35.186Z,11.24
2022-10-26T14:54:05.119Z,11.23
2022-10-26T14:56:37.793Z,11.25
2022-10-26T14:59:22.744Z,11.23
2022-10-26T15:01:55.783Z,11.18
2022-10-26T15:04:32.232Z,11.14
2022-10-26T15:07:20.325Z,11.11
2022-10-26T15:10:03.637Z,11.11
2022-10-26T15:12:37.972Z,11.11
2022-10-26T15:15:28.090Z,11.14
2022-10-26T15:18:38.171Z,11.19
2022-10-26T15:21:24.592Z,11.20
2022-10-26T15:24:25.773Z,11.20
2022-10-26T15:27:17.030Z,11.18
2022-10-26T15:29:48.968Z,11.12
2022-10-26T15:32:33.642Z,11.06
2022-10-26T15:35:24.572Z,11.01
2022-10-26T15:38:11.752Z,10.98
2022-10-26T15:40:44.473Z,10.93
2022-10-26T15:43:27.253Z,10.91
2022-10-26T15:45:56.769Z,10.91
2022-10-26T15:48:32.537Z,10.90
2022-10-26T15:51:01.634Z,10.87
2022-10-26T15:53:30.756Z,10.82
2022-10-26T15:56:00.907Z,10.79
2022-10-26T15:58:33.399Z,10.77
2022-10-26T16:01:22.194Z,10.72
2022-10-26T16:03:52.073Z,10.68
2022-10-26T16:06:35.722Z,10.67
2022-10-26T16:09:19.096Z,10.66
2022-10-26T16:11:47.576Z,10.65
2022-10-26T16:14:33.502Z,10.65
2022-10-26T16:17:07.920Z,10.63
2022-10-26T16:19:51.161Z,10.64
2022-10-26T16:22:20.730Z,10.64
2022-10-26T16:24:50.073Z,10.64
2022-10-26T16:27:19.582Z,10.67
2022-10-26T16:29:48.272Z,10.68
2022-10-26T16:32:17.059Z,10.67
2022-10-26T16:34:46.172Z,10.68
2022-10-26T16:37:31.753Z,10.68
2022-10-26T16:40:00.624Z,10.67
2022-10-26T16:42:45.377Z,10.67
2022-10-26T16:45:15.559Z,10.67
2022-10-26T16:47:44.822Z,10.69
2022-10-26T16:50:14.821Z,10.72
2022-10-26T16:52:43.704Z,10.72
2022-10-26T16:55:12.671Z,10.72
2022-10-26T16:57:54.989Z,10.71
2022-10-26T17:00:23.872Z,10.72
2022-10-26T17:02:52.738Z,10.72
2022-10-26T17:05:21.676Z,10.72
2022-10-26T17:07:51.314Z,10.71
2022-10-26T17:10:21.336Z,10.70
2022-10-26T17:12:51.388Z,10.69
2022-10-26T17:15:22.444Z,10.69
2022-10-26T17:17:52.914Z,10.69
2022-10-26T17:20:35.686Z,10.69
2022-10-26T17:23:06.111Z,10.69
2022-10-26T17:25:48.876Z,10.68
2022-10-26T17:28:32.395Z,10.65
2022-10-26T17:31:16.046Z,10.63
2022-10-26T17:33:46.024Z,10.61
2022-10-26T17:36:17.917Z,10.58
2022-10-26T17:39:01.619Z,10.56
2022-10-26T17:41:30.793Z,10.54
2022-10-26T17:44:00.080Z,10.50
2022-10-26T17:46:29.530Z,10.50
2022-10-26T17:49:00.963Z,10.48
2022-10-26T17:51:32.062Z,10.46
2022-10-26T17:54:02.243Z,10.45
2022-10-26T17:56:33.781Z,10.44
2022-10-26T17:59:16.459Z,10.44
2022-10-26T18:01:45.377Z,10.44
2022-10-26T18:04:14.358Z,10.44
2022-10-26T18:06:42.967Z,10.46
2022-10-26T18:09:11.525Z,10.46
2022-10-26T18:11:40.103Z,10.45
2022-10-26T18:14:08.704Z,10.40
2022-10-26T18:16:37.269Z,10.35
2022-10-26T18:19:05.897Z,10.30
2022-10-26T18:21:39.370Z,10.24
2022-10-26T18:24:09.779Z,10.18
2022-10-26T18:26:38.500Z,10.11
2022-10-26T18:29:07.739Z,10.04
2022-10-26T18:31:36.647Z,9.96
2022-10-26T18:34:06.972Z,9.88
2022-10-26T18:36:49.176Z,9.80
2022-10-26T18:39:31.822Z,9.72
2022-10-26T18:42:01.063Z,9.65
2022-10-26T18:44:43.198Z,9.57
2022-10-26T18:47:12.579Z,9.49
2022-10-26T18:49:42.093Z,9.42
2022-10-26T18:52:11.081Z,9.34
2022-10-26T18:54:54.700Z,9.25
2022-10-26T18:57:27.368Z,9.17
2022-10-26T18:59:56.300Z,9.10
2022-10-26T19:02:38.745Z,9.04
2022-10-26T19:05:07.855Z,9.00
2022-10-26T19:07:39.265Z,8.95
2022-10-26T19:10:08.923Z,8.89
2022-10-26T19:12:37.545Z,8.85
2022-10-26T19:15:06.766Z,8.81
2022-10-26T19:17:35.352Z,8.77
2022-10-26T19:20:18.272Z,8.72
2022-10-26T19:22:47.031Z,8.68
2022-10-26T19:25:29.308Z,8.65
2022-10-26T19:27:57.867Z,8.65
2022-10-26T19:30:26.523Z,8.61
2022-10-26T19:32:55.241Z,8.59
2022-10-26T19:35:23.979Z,8.56
2022-10-26T19:37:52.958Z,8.52
2022-10-26T19:40:22.420Z,8.48
2022-10-26T19:42:51.262Z,8.45
2022-10-26T19:45:20.795Z,8.42
2022-10-26T19:47:50.045Z,8.39
2022-10-26T19:50:19.674Z,8.37
2022-10-26T19:52:49.019Z,8.37
2022-10-26T19:55:17.984Z,8.36
2022-10-26T19:57:46.913Z,8.35
2022-10-26T20:00:29.715Z,8.33
2022-10-26T20:02:58.900Z,8.30
2022-10-26T20:05:29.190Z,8.26
2022-10-26T20:07:57.720Z,8.24
2022-10-26T20:10:26.719Z,8.21
2022-10-26T20:13:11.767Z,8.17
2022-10-26T20:15:54.426Z,8.15
2022-10-26T20:18:23.764Z,8.14
2022-10-26T20:21:11.241Z,8.10
2022-10-26T20:23:40.692Z,8.06
2022-10-26T20:26:10.958Z,8.04
2022-10-26T20:28:46.800Z,8.03
2022-10-26T20:31:29.705Z,8.00
2022-10-26T20:33:58.546Z,7.99
2022-10-26T20:36:28.149Z,7.98
2022-10-26T20:38:57.450Z,7.97
2022-10-26T20:41:26.351Z,7.95
2022-10-26T20:43:58.041Z,7.92
2022-10-26T20:46:28.532Z,7.91
2022-10-26T20:48:57.781Z,7.90
2022-10-26T20:52:08.302Z,7.87
2022-10-26T20:54:53.959Z,7.83
2022-10-26T20:57:37.770Z,7.81
2022-10-26T21:00:11.341Z,7.79
2022-10-26T21:02:40.201Z,7.77
2022-10-26T21:05:09.375Z,7.72
2022-10-26T21:07:52.149Z,7.69
2022-10-26T21:10:21.517Z,7.65
2022-10-26T21:12:51.118Z,7.61
2022-10-26T21:15:19.957Z,7.61
2022-10-26T21:17:49.406Z,7.61
2022-10-26T21:20:32.868Z,7.61
2022-10-26T21:23:02.377Z,7.62
2022-10-26T21:25:31.774Z,7.61
2022-10-26T21:28:14.370Z,7.60
2022-10-26T21:31:00.772Z,7.60
2022-10-26T21:33:44.234Z,7.61
2022-10-26T21:36:27.159Z,7.62
2022-10-26T21:39:09.526Z,7.64
2022-10-26T21:41:39.029Z,7.65
2022-10-26T21:44:24.703Z,7.65
2022-10-26T21:46:59.437Z,7.66
2022-10-26T21:52:15.810Z,7.62
2022-10-26T21:54:44.612Z,7.60
2022-10-26T21:57:13.412Z,7.60
2022-10-26T21:59:43.015Z,7.62
2022-10-26T22:02:11.941Z,7.65
2022-10-26T22:04:40.802Z,7.65
2022-10-26T22:07:09.522Z,7.69
2022-10-26T22:09:49.393Z,7.74
2022-10-26T22:12:27.563Z,7.71
2022-10-26T22:14:56.604Z,7.66
2022-10-26T22:17:25.418Z,7.59
2022-10-26T22:19:54.516Z,7.54
2022-10-26T22:22:23.252Z,7.50
2022-10-26T22:25:02.466Z,7.48
2022-10-26T22:27:48.889Z,7.46
2022-10-26T22:30:19.031Z,7.43
2022-10-26T22:32:48.792Z,7.39
2022-10-26T22:35:29.037Z,7.35
2022-10-26T22:37:58.692Z,7.32
2022-10-26T22:40:41.438Z,7.29
2022-10-26T22:43:11.011Z,7.28
2022-10-26T22:46:09.258Z,7.28
2022-10-26T22:48:57.424Z,7.30
2022-10-26T22:51:40.546Z,7.34
2022-10-26T22:54:23.311Z,7.35
2022-10-26T22:56:52.471Z,7.37
2022-10-26T22:59:35.096Z,7.37
2022-10-26T23:02:04.187Z,7.37
2022-10-26T23:04:33.585Z,7.37
2022-10-26T23:07:02.572Z,7.35
2022-10-26T23:09:31.544Z,7.35
2022-10-26T23:12:01.086Z,7.34
2022-10-26T23:14:43.905Z,7.32
2022-10-26T23:17:12.864Z,7.32
2022-10-26T23:19:55.735Z,7.32
2022-10-26T23:22:25.123Z,7.29
2022-10-26T23:24:54.531Z,7.28
2022-10-26T23:27:36.848Z,7.27
2022-10-26T23:30:19.395Z,7.27
2022-10-26T23:32:48.899Z,7.26
2022-10-26T23:35:18.367Z,7.25
2022-10-26T23:37:47.669Z,7.26
2022-10-26T23:40:16.736Z,7.26
2022-10-26T23:42:59.567Z,7.27
2022-10-26T23:45:28.757Z,7.27
2022-10-26T23:47:57.890Z,7.26
2022-10-26T23:50:26.865Z,7.26
2022-10-26T23:53:10.504Z,7.26
2022-10-26T23:55:40.316Z,7.27
2022-10-26T23:58:22.707Z,7.33
